KUNV/SCE METAR and TAF weather

Enter ICAO airport designator
Station Type Date Time Source
KUNV METAR 2019/02/20 22:53 UTC NOAA

KUNV 202253Z 17004KT 2SM FZDZ OVC013 M03/M03 A3014


Station Type Date Time Source
KUNV Decoded METAR 2019/02/20 22:53 UTC NOAA

State College, University Park Airport, PA, United States (KUNV) 40-51N 077-51W
Feb 20, 2019 - 05:53 PM EST / 2019.02.20 2253 UTC
Wind: from the S (170 degrees) at 5 MPH (4 KT):0
Visibility: 2 mile(s):0
Sky conditions: overcast
Weather: freezing drizzle
Temperature: 26 F (-3 C)
Windchill: 19 F (-7 C):1
Dew Point: 26 F (-3 C)
Relative Humidity: 100%
Pressure (altimeter): 30.14 in. Hg (1020 hPa)
ob: KUNV 202253Z 17004KT 2SM FZDZ OVC013 M03/M03 A3014
cycle: 23

Station Type Date Time Source
KUNV TAF 2019/02/20 22:36 UTC NOAA

TAF
AMD KUNV 202134Z 2022/2118 17007KT 2SM -FZDZ BKN013 OVC018 WS020/15035KT
FM210000 15010KT 1SM -FZRA BR OVC005 WS020/19040KT
FM210700 17008KT 1SM -FZDZ BR OVC005 WS020/23040KT
FM210900 VRB03KT 1SM -DZ BR OVC005
FM211200 28010KT 5SM -SHRASN BR OVC008
FM211500 29012G22KT P6SM OVC025


Example: see airport list